createdAt,value
2023-03-02T10:25:51.905Z,956.75
2023-03-02T10:26:51.910Z,956.69
2023-03-02T10:27:51.966Z,956.74
2023-03-02T10:28:51.886Z,956.75
2023-03-02T10:29:51.882Z,956.76
2023-03-02T10:30:51.945Z,956.75
2023-03-02T10:31:51.918Z,956.76
2023-03-02T10:32:51.901Z,956.76
2023-03-02T10:33:51.864Z,956.78
2023-03-02T10:34:51.794Z,956.77
2023-03-02T10:35:51.893Z,956.80
2023-03-02T10:36:51.806Z,956.85
2023-03-02T10:37:51.817Z,956.80
2023-03-02T10:38:51.794Z,956.76
2023-03-02T10:39:51.773Z,956.80
2023-03-02T10:40:51.735Z,956.76
2023-03-02T10:41:51.734Z,956.79
2023-03-02T10:42:51.704Z,956.73
2023-03-02T10:43:51.718Z,956.71
2023-03-02T10:44:51.691Z,956.77
2023-03-02T10:45:51.732Z,956.76
2023-03-02T10:46:51.649Z,956.73
2023-03-02T10:47:51.679Z,956.75
2023-03-02T10:48:51.656Z,956.75
2023-03-02T10:49:54.326Z,956.72
2023-03-02T10:50:51.636Z,956.72
2023-03-02T10:51:51.654Z,956.78
2023-03-02T10:53:00.189Z,956.75
2023-03-02T10:53:51.576Z,956.75
2023-03-02T10:54:51.572Z,956.72
2023-03-02T10:55:51.603Z,956.65
2023-03-02T10:56:51.542Z,956.67
2023-03-02T10:57:51.553Z,956.65
2023-03-02T10:58:51.533Z,956.72
2023-03-02T10:59:51.567Z,956.72
2023-03-02T11:00:51.507Z,956.72
2023-03-02T11:01:51.516Z,956.73
2023-03-02T11:02:51.599Z,956.77
2023-03-02T11:03:51.462Z,956.76
2023-03-02T11:04:51.573Z,956.77
2023-03-02T11:05:51.456Z,956.76
2023-03-02T11:06:53.579Z,956.73
2023-03-02T11:08:06.389Z,956.70
2023-03-02T11:08:51.436Z,956.73
2023-03-02T11:09:51.416Z,956.69
2023-03-02T11:10:51.447Z,956.69
2023-03-02T11:11:51.444Z,956.60
2023-03-02T11:12:51.380Z,956.66
2023-03-02T11:13:51.367Z,956.66
2023-03-02T11:14:51.354Z,956.67
2023-03-02T11:15:51.363Z,956.66
2023-03-02T11:16:51.341Z,956.66
2023-03-02T11:17:51.322Z,956.65
2023-03-02T11:18:51.391Z,956.66
2023-03-02T11:19:51.310Z,956.62
2023-03-02T11:20:51.303Z,956.61
2023-03-02T11:21:51.269Z,956.64
2023-03-02T11:22:51.284Z,956.62
2023-03-02T11:23:51.295Z,956.63
2023-03-02T11:24:51.241Z,956.54
2023-03-02T11:25:51.250Z,956.55
2023-03-02T11:26:51.213Z,956.63
2023-03-02T11:27:51.237Z,956.59
2023-03-02T11:28:51.190Z,956.60
2023-03-02T11:29:51.213Z,956.57
2023-03-02T11:30:51.180Z,956.60
2023-03-02T11:31:51.301Z,956.57
2023-03-02T11:32:51.190Z,956.53
2023-03-02T11:33:51.216Z,956.45
2023-03-02T11:34:51.151Z,956.50
2023-03-02T11:35:51.158Z,956.54
2023-03-02T11:36:51.107Z,956.52
2023-03-02T11:37:51.123Z,956.48
2023-03-02T11:38:51.107Z,956.45
2023-03-02T11:39:55.744Z,956.45
2023-03-02T11:40:51.085Z,956.40
2023-03-02T11:41:51.063Z,956.43
2023-03-02T11:42:51.040Z,956.39
2023-03-02T11:43:51.034Z,956.40
2023-03-02T11:44:51.015Z,956.42
2023-03-02T11:45:51.049Z,956.39
2023-03-02T11:46:51.080Z,956.38
2023-03-02T11:47:57.646Z,956.38
2023-03-02T11:48:50.980Z,956.40
2023-03-02T11:49:50.965Z,956.33
2023-03-02T11:50:50.971Z,956.35
2023-03-02T11:58:04.193Z,956.29
2023-03-02T11:58:09.179Z,956.30
2023-03-02T11:59:09.920Z,956.27
2023-03-02T12:00:09.147Z,956.30
2023-03-02T12:01:09.176Z,956.30
2023-03-02T12:02:09.193Z,956.29
2023-03-02T12:03:09.186Z,956.31
2023-03-02T12:04:09.102Z,956.27
2023-03-02T12:05:09.257Z,956.27
2023-03-02T12:06:09.074Z,956.28
2023-03-02T12:07:09.061Z,956.20
2023-03-02T12:08:09.040Z,956.24
2023-03-02T12:09:09.112Z,956.24
2023-03-02T12:10:09.032Z,956.20
2023-03-02T12:11:09.060Z,956.31
2023-03-02T12:12:09.004Z,956.25
2023-03-02T12:13:09.013Z,956.21
2023-03-02T12:14:09.009Z,956.21
2023-03-02T12:15:08.994Z,956.22
2023-03-02T12:16:09.070Z,956.27
2023-03-02T12:17:09.756Z,956.22
2023-03-02T12:18:08.959Z,956.23
2023-03-02T12:19:08.936Z,956.18
2023-03-02T12:20:08.932Z,956.18
2023-03-02T12:21:09.775Z,956.21
2023-03-02T12:22:08.899Z,956.26
2023-03-02T12:23:08.907Z,956.18
2023-03-02T12:24:08.881Z,956.21
2023-03-02T12:25:08.876Z,956.28
2023-03-02T12:26:08.873Z,956.28
2023-03-02T12:27:08.839Z,956.19
2023-03-02T12:28:08.822Z,956.25
2023-03-02T12:29:08.809Z,956.22
2023-03-02T12:30:08.983Z,956.26
2023-03-02T12:31:08.837Z,956.26
2023-03-02T12:32:08.899Z,956.30
2023-03-02T12:33:08.818Z,956.26
2023-03-02T12:34:08.791Z,956.18
2023-03-02T12:35:08.860Z,956.25
2023-03-02T12:36:08.785Z,956.24
2023-03-02T12:37:08.767Z,956.21
2023-03-02T12:38:08.796Z,956.20
2023-03-02T12:39:08.715Z,956.16
2023-03-02T12:40:08.724Z,956.18
2023-03-02T12:41:08.735Z,956.19
2023-03-02T12:42:08.711Z,956.16
2023-03-02T12:43:08.703Z,956.18
2023-03-02T12:44:08.677Z,956.20
2023-03-02T12:45:08.672Z,956.17
2023-03-02T12:46:08.669Z,956.18
2023-03-02T12:47:08.831Z,956.19
2023-03-02T12:48:08.736Z,956.11
2023-03-02T12:49:09.656Z,956.10
2023-03-02T12:50:08.589Z,956.11
2023-03-02T12:51:08.627Z,956.09
2023-03-02T12:52:08.648Z,956.12
2023-03-02T12:53:08.593Z,956.07
2023-03-02T12:54:08.532Z,956.09
2023-03-02T12:55:08.555Z,956.08
2023-03-02T12:56:08.628Z,956.08
2023-03-02T12:57:08.578Z,956.09
2023-03-02T12:58:08.942Z,956.10
2023-03-02T12:59:08.504Z,956.05
2023-03-02T13:00:08.491Z,956.02
2023-03-02T13:01:08.646Z,956.02
2023-03-02T13:02:08.466Z,956.08
2023-03-02T13:03:09.450Z,956.01
2023-03-02T13:04:08.460Z,956.10
2023-03-02T13:05:08.458Z,956.02
2023-03-02T13:06:08.403Z,956.03
2023-03-02T13:07:08.428Z,956.04
2023-03-02T13:08:08.383Z,956.05
2023-03-02T13:09:08.475Z,956.01
2023-03-02T13:10:08.609Z,955.98
2023-03-02T13:11:09.868Z,955.99
2023-03-02T13:12:08.398Z,956.02
2023-03-02T13:13:08.378Z,955.97
2023-03-02T13:14:08.343Z,955.99
2023-03-02T13:15:09.289Z,955.97
2023-03-02T13:16:08.376Z,956.01
2023-03-02T13:17:08.458Z,956.00
2023-03-02T13:18:08.278Z,955.99
2023-03-02T13:19:08.289Z,955.99
2023-03-02T13:20:09.423Z,955.97
2023-03-02T13:21:08.258Z,955.95
2023-03-02T13:22:08.383Z,955.97
2023-03-02T13:23:08.262Z,955.95
2023-03-02T13:24:08.245Z,955.98
2023-03-02T13:25:08.193Z,955.94
2023-03-02T13:26:08.179Z,955.93
2023-03-02T13:27:08.387Z,955.91
2023-03-02T13:28:08.175Z,955.94
2023-03-02T13:29:08.173Z,955.91
2023-03-02T13:30:08.141Z,955.94
2023-03-02T13:31:08.250Z,955.89
2023-03-02T13:32:08.190Z,955.86
2023-03-02T13:33:08.116Z,955.84
2023-03-02T13:34:08.099Z,955.84
2023-03-02T13:35:08.095Z,955.86
2023-03-02T13:36:08.093Z,955.84
2023-03-02T13:37:08.076Z,955.83
2023-03-02T13:38:08.133Z,955.90
2023-03-02T13:39:08.065Z,955.82
2023-03-02T13:40:08.033Z,955.85
2023-03-02T13:41:10.065Z,955.85
2023-03-02T13:42:08.030Z,955.84
2023-03-02T13:43:07.994Z,955.80
2023-03-02T13:44:07.997Z,955.79
2023-03-02T13:45:08.045Z,955.75
2023-03-02T13:46:08.132Z,955.81
2023-03-02T13:47:07.961Z,955.78
2023-03-02T13:48:07.957Z,955.77
2023-03-02T13:49:10.571Z,955.75
2023-03-02T13:50:07.976Z,955.83
2023-03-02T13:51:07.972Z,955.81
2023-03-02T13:52:08.460Z,955.79
2023-03-02T13:53:07.893Z,955.81
2023-03-02T13:54:07.863Z,955.78
2023-03-02T13:55:07.917Z,955.74
2023-03-02T13:56:07.843Z,955.75
2023-03-02T13:57:07.870Z,955.73
2023-03-02T13:58:07.825Z,955.76
2023-03-02T13:59:07.916Z,955.77
2023-03-02T14:00:07.818Z,955.79
2023-03-02T14:01:07.835Z,955.83
2023-03-02T14:02:07.805Z,955.77
2023-03-02T14:03:07.774Z,955.78
2023-03-02T14:04:07.905Z,955.81
2023-03-02T14:05:07.911Z,955.80
2023-03-02T14:06:07.736Z,955.79
2023-03-02T14:07:07.834Z,955.79
2023-03-02T14:08:07.729Z,955.77
2023-03-02T14:09:07.718Z,955.78
2023-03-02T14:10:07.683Z,955.81
2023-03-02T14:11:07.694Z,955.77
2023-03-02T14:12:07.664Z,955.73
2023-03-02T14:13:07.688Z,955.81
2023-03-02T14:14:07.647Z,955.74
2023-03-02T14:15:07.686Z,955.76
2023-03-02T14:16:07.632Z,955.77
2023-03-02T14:17:07.639Z,955.74
2023-03-02T14:18:07.618Z,955.73
2023-03-02T14:19:07.603Z,955.70
2023-03-02T14:20:07.589Z,955.77
2023-03-02T14:21:07.765Z,955.75
2023-03-02T14:22:07.552Z,955.75
2023-03-02T14:23:07.988Z,955.76
2023-03-02T14:24:07.546Z,955.76
2023-03-02T14:25:07.542Z,955.70
2023-03-02T14:26:07.545Z,955.77
2023-03-02T14:27:07.499Z,955.69
2023-03-02T14:28:07.564Z,955.68
2023-03-02T14:29:07.484Z,955.72
2023-03-02T14:30:07.477Z,955.69
2023-03-02T14:31:07.506Z,955.69
2023-03-02T14:32:07.514Z,955.73
2023-03-02T14:33:07.449Z,955.67
2023-03-02T14:34:07.426Z,955.72
2023-03-02T14:35:07.453Z,955.72
2023-03-02T14:36:07.414Z,955.70
2023-03-02T14:37:07.417Z,955.65
2023-03-02T14:38:07.428Z,955.64
2023-03-02T14:39:07.403Z,955.67
2023-03-02T14:40:07.371Z,955.67
2023-03-02T14:41:07.451Z,955.60
2023-03-02T14:42:07.447Z,955.64
2023-03-02T14:43:07.333Z,955.62
2023-03-02T14:44:07.327Z,955.59
2023-03-02T14:45:07.314Z,955.61
2023-03-02T14:46:07.309Z,955.66
2023-03-02T14:47:07.345Z,955.63
2023-03-02T14:48:07.291Z,955.63
2023-03-02T14:49:07.268Z,955.60
2023-03-02T14:50:07.252Z,955.61
2023-03-02T14:51:07.247Z,955.62
2023-03-02T14:52:07.238Z,955.59
2023-03-02T14:53:07.256Z,955.59
2023-03-02T14:54:07.253Z,955.58
2023-03-02T14:55:07.235Z,955.59
2023-03-02T14:56:07.258Z,955.59
2023-03-02T14:57:07.216Z,955.60
2023-03-02T14:58:07.231Z,955.57
2023-03-02T14:59:07.204Z,955.57
2023-03-02T15:00:07.138Z,955.55
2023-03-02T15:01:07.129Z,955.59
2023-03-02T15:02:22.696Z,955.60
2023-03-02T15:03:08.013Z,955.61
2023-03-02T15:04:07.112Z,955.66
2023-03-02T15:05:07.119Z,955.68
2023-03-02T15:06:07.092Z,955.67
2023-03-02T15:07:07.082Z,955.65
2023-03-02T15:08:07.065Z,955.68
2023-03-02T15:09:07.052Z,955.68
2023-03-02T15:10:07.050Z,955.65
2023-03-02T15:11:07.058Z,955.61
2023-03-02T15:12:07.018Z,955.63
2023-03-02T15:13:07.064Z,955.63
2023-03-02T15:14:06.993Z,955.60
2023-03-02T15:15:06.981Z,955.60
2023-03-02T15:16:07.140Z,955.72
2023-03-02T15:17:07.006Z,955.67
2023-03-02T15:18:06.969Z,955.65
2023-03-02T15:19:06.977Z,955.67
2023-03-02T15:20:06.994Z,955.70
2023-03-02T15:21:06.966Z,955.68
2023-03-02T15:22:06.913Z,955.70
2023-03-02T15:23:07.786Z,955.69
2023-03-02T15:24:06.982Z,955.70
2023-03-02T15:25:06.891Z,955.69
2023-03-02T15:26:06.922Z,955.73
2023-03-02T15:27:06.867Z,955.75
2023-03-02T15:28:06.844Z,955.74
2023-03-02T15:29:06.840Z,955.74
2023-03-02T15:30:06.925Z,955.75
2023-03-02T15:31:06.904Z,955.79
2023-03-02T15:32:06.831Z,955.84
2023-03-02T15:33:07.011Z,955.78
2023-03-02T15:34:06.784Z,955.83
2023-03-02T15:35:06.765Z,955.75
2023-03-02T15:36:06.768Z,955.82
2023-03-02T15:37:06.749Z,955.79
2023-03-02T15:38:06.761Z,955.80
2023-03-02T15:39:06.792Z,955.86
2023-03-02T15:40:06.719Z,955.92
2023-03-02T15:41:06.699Z,955.89
2023-03-02T15:42:06.732Z,955.83
2023-03-02T15:43:06.688Z,955.90
2023-03-02T15:44:06.763Z,955.90
2023-03-02T15:45:06.643Z,955.89
2023-03-02T15:46:06.688Z,955.88
2023-03-02T15:47:06.636Z,955.89
2023-03-02T15:48:06.688Z,955.93
2023-03-02T15:49:06.630Z,955.93
2023-03-02T15:50:06.657Z,955.96
2023-03-02T15:51:06.577Z,955.99
2023-03-02T15:52:06.629Z,955.96
2023-03-02T15:53:06.549Z,956.00
2023-03-02T15:54:06.566Z,956.01
2023-03-02T15:55:06.530Z,956.00
2023-03-02T15:56:07.269Z,956.12
2023-03-02T15:57:06.565Z,956.09
2023-03-02T15:58:06.826Z,956.14
2023-03-02T15:59:27.470Z,956.07
2023-03-02T16:00:06.476Z,956.08
2023-03-02T16:01:06.551Z,956.09
2023-03-02T16:02:06.538Z,956.11
2023-03-02T16:03:06.568Z,956.16
2023-03-02T16:04:06.466Z,956.17
2023-03-02T16:05:06.432Z,956.18
2023-03-02T16:06:06.445Z,956.18
2023-03-02T16:07:06.423Z,956.18
2023-03-02T16:08:06.435Z,956.20
2023-03-02T16:09:06.420Z,956.18
2023-03-02T16:10:14.409Z,956.21
2023-03-02T16:11:06.431Z,956.21
2023-03-02T16:12:06.358Z,956.25
2023-03-02T16:13:06.343Z,956.22
2023-03-02T16:14:06.343Z,956.22
2023-03-02T16:15:06.329Z,956.22
2023-03-02T16:16:06.457Z,956.24
2023-03-02T16:17:06.305Z,956.26
2023-03-02T16:18:06.285Z,956.23
2023-03-02T16:19:06.278Z,956.25
2023-03-02T16:20:06.271Z,956.25
2023-03-02T16:21:06.360Z,956.24
2023-03-02T16:22:15.754Z,956.21
2023-03-02T16:23:06.261Z,956.20
2023-03-02T16:24:06.249Z,956.24
2023-03-02T16:25:06.205Z,956.25
2023-03-02T16:26:27.221Z,956.30
2023-03-02T16:27:06.173Z,956.26
2023-03-02T16:28:06.180Z,956.27
2023-03-02T16:29:06.203Z,956.29
2023-03-02T16:30:06.163Z,956.31
2023-03-02T16:31:43.073Z,956.31
2023-03-02T16:32:06.204Z,956.30
2023-03-02T16:33:06.171Z,956.29
2023-03-02T16:34:06.128Z,956.34
2023-03-02T16:35:06.144Z,956.38
2023-03-02T16:36:06.166Z,956.41
2023-03-02T16:37:06.108Z,956.38
2023-03-02T16:38:07.734Z,956.40
2023-03-02T16:39:06.072Z,956.41
2023-03-02T16:40:06.145Z,956.44
2023-03-02T16:41:08.646Z,956.46
2023-03-02T16:42:06.020Z,956.48
2023-03-02T16:43:05.999Z,956.46
2023-03-02T16:44:06.016Z,956.50
2023-03-02T16:45:06.103Z,956.56
2023-03-02T16:46:06.105Z,956.55
2023-03-02T16:47:06.003Z,956.59
2023-03-02T16:48:05.968Z,956.57
2023-03-02T16:49:05.968Z,956.55
2023-03-02T16:50:05.957Z,956.59
2023-03-02T16:51:05.960Z,956.58
2023-03-02T16:52:05.923Z,956.63
2023-03-02T16:53:05.945Z,956.64
2023-03-02T16:54:05.984Z,956.63
2023-03-02T16:55:05.914Z,956.67
2023-03-02T16:56:05.865Z,956.71
2023-03-02T16:57:05.873Z,956.70
2023-03-02T16:58:05.915Z,956.76
2023-03-02T16:59:05.860Z,956.75
2023-03-02T17:00:05.870Z,956.79
2023-03-02T17:01:06.001Z,956.78
2023-03-02T17:02:05.806Z,956.80
2023-03-02T17:03:05.796Z,956.84
2023-03-02T17:04:06.182Z,956.75
2023-03-02T17:05:05.775Z,956.82
2023-03-02T17:06:05.760Z,956.80
2023-03-02T17:07:05.737Z,956.83
2023-03-02T17:08:05.745Z,956.85
2023-03-02T17:09:05.776Z,956.94
2023-03-02T17:10:05.835Z,956.91
2023-03-02T17:11:06.032Z,956.90
2023-03-02T17:12:07.354Z,956.91
2023-03-02T17:13:05.764Z,956.88
2023-03-02T17:14:05.726Z,956.88
2023-03-02T17:15:05.707Z,956.95
2023-03-02T17:16:05.839Z,956.96
2023-03-02T17:17:05.635Z,956.99
2023-03-02T17:18:05.631Z,956.94
2023-03-02T17:21:22.527Z,956.96
2023-03-02T17:22:22.936Z,956.99
2023-03-02T17:25:05.980Z,956.99
2023-03-02T17:26:06.011Z,957.05
2023-03-02T17:27:15.909Z,957.00
2023-03-02T17:28:05.948Z,957.07
2023-03-02T17:29:05.942Z,957.07
2023-03-02T17:30:11.225Z,957.12
2023-03-02T17:32:30.559Z,957.09
2023-03-02T17:33:30.543Z,957.14
2023-03-02T17:34:30.544Z,957.15
2023-03-02T17:35:30.494Z,957.19
2023-03-02T17:36:31.356Z,957.22
2023-03-02T17:37:39.506Z,957.26
2023-03-02T17:38:30.457Z,957.26
2023-03-02T17:39:30.455Z,957.27
2023-03-02T17:42:11.233Z,957.26
2023-03-02T17:43:11.846Z,957.29
2023-03-02T17:44:11.542Z,957.32
2023-03-02T17:45:12.671Z,957.34
2023-03-02T17:46:10.862Z,957.36
2023-03-02T17:47:10.790Z,957.38
2023-03-02T17:48:10.846Z,957.37
2023-03-02T17:49:10.765Z,957.40
2023-03-02T17:50:10.757Z,957.38
2023-03-02T17:51:10.745Z,957.34
2023-03-02T17:52:10.729Z,957.42
2023-03-02T17:53:10.737Z,957.42
2023-03-02T17:54:10.718Z,957.41
2023-03-02T17:55:10.747Z,957.45
2023-03-02T17:56:10.691Z,957.42
2023-03-02T17:57:10.696Z,957.45
2023-03-02T17:58:10.657Z,957.44
2023-03-02T17:59:10.650Z,957.47
2023-03-02T18:00:10.693Z,957.49
2023-03-02T18:01:10.665Z,957.48
2023-03-02T18:02:10.714Z,957.47
2023-03-02T18:03:10.965Z,957.49
2023-03-02T18:04:10.715Z,957.46
2023-03-02T18:05:10.962Z,957.48
2023-03-02T18:06:10.603Z,957.47
2023-03-02T18:07:10.619Z,957.50
2023-03-02T18:08:13.366Z,957.48
2023-03-02T18:09:10.562Z,957.48
2023-03-02T18:10:13.167Z,957.55
2023-03-02T18:11:13.104Z,957.53
2023-03-02T18:12:10.530Z,957.51
2023-03-02T18:13:10.561Z,957.51
2023-03-02T18:14:10.493Z,957.55
2023-03-02T18:15:10.467Z,957.61
2023-03-02T18:16:10.514Z,957.56
2023-03-02T18:17:10.446Z,957.60
2023-03-02T18:18:10.460Z,957.60
2023-03-02T18:19:10.444Z,957.56
2023-03-02T18:20:10.483Z,957.52
2023-03-02T18:21:10.463Z,957.59
2023-03-02T18:22:10.727Z,957.57
2023-03-02T18:23:10.396Z,957.56
2023-03-02T18:24:10.404Z,957.61
2023-03-02T18:25:10.446Z,957.56
2023-03-02T18:26:11.285Z,957.61
2023-03-02T18:27:10.342Z,957.61
2023-03-02T18:28:10.344Z,957.63
2023-03-02T18:29:10.322Z,957.67
2023-03-02T18:30:10.307Z,957.65
2023-03-02T18:31:11.126Z,957.68
2023-03-02T18:32:10.365Z,957.60
2023-03-02T18:33:10.368Z,957.68
2023-03-02T18:34:10.527Z,957.67
2023-03-02T18:35:10.250Z,957.65
2023-03-02T18:36:10.260Z,957.70
2023-03-02T18:37:10.229Z,957.67
2023-03-02T18:38:10.213Z,957.61
2023-03-02T18:39:10.214Z,957.62
2023-03-02T18:40:10.236Z,957.61
2023-03-02T18:41:10.201Z,957.62
2023-03-02T18:42:12.488Z,957.62
2023-03-02T18:43:10.156Z,957.60
2023-03-02T18:44:10.185Z,957.61
2023-03-02T18:45:10.149Z,957.62
2023-03-02T18:46:10.185Z,957.67
2023-03-02T18:47:10.116Z,957.65
2023-03-02T18:48:10.096Z,957.67
2023-03-02T18:49:10.092Z,957.69
2023-03-02T18:50:10.084Z,957.68
2023-03-02T18:51:10.081Z,957.67
2023-03-02T18:52:10.865Z,957.70
2023-03-02T18:53:12.490Z,957.65
2023-03-02T18:54:10.035Z,957.67
2023-03-02T18:55:10.054Z,957.68
2023-03-02T18:56:10.125Z,957.72
2023-03-02T18:57:10.019Z,957.71
2023-03-02T18:58:09.998Z,957.74
2023-03-02T18:59:10.001Z,957.72
2023-03-02T19:00:09.971Z,957.79
2023-03-02T19:01:10.076Z,957.78
2023-03-02T19:02:09.997Z,957.74
2023-03-02T19:03:09.937Z,957.76
2023-03-02T19:04:09.933Z,957.79
2023-03-02T19:05:10.724Z,957.76
2023-03-02T19:06:09.928Z,957.81
2023-03-02T19:07:09.899Z,957.81
2023-03-02T19:08:10.010Z,957.81
2023-03-02T19:09:09.885Z,957.82
2023-03-02T19:10:09.878Z,957.82
2023-03-02T19:11:09.860Z,957.87
2023-03-02T19:12:09.887Z,957.82
2023-03-02T19:13:09.844Z,957.84
2023-03-02T19:14:09.839Z,957.84
2023-03-02T19:15:09.818Z,957.84
2023-03-02T19:16:09.961Z,957.89
2023-03-02T19:17:09.828Z,957.87
2023-03-02T19:18:09.795Z,957.80
2023-03-02T19:19:09.808Z,957.83
2023-03-02T19:20:09.769Z,957.90
2023-03-02T19:21:09.777Z,957.87
2023-03-02T19:22:09.753Z,957.91
2023-03-02T19:23:10.553Z,957.90
2023-03-02T19:24:09.775Z,957.89
2023-03-02T19:25:09.697Z,957.92
2023-03-02T19:26:09.748Z,957.96
2023-03-02T19:27:11.461Z,957.96
2023-03-02T19:28:09.671Z,957.95
2023-03-02T19:29:09.654Z,957.96
2023-03-02T19:30:09.651Z,957.99
2023-03-02T19:31:09.673Z,957.96
2023-03-02T19:32:09.707Z,957.98
2023-03-02T19:33:09.612Z,958.00
2023-03-02T19:34:09.643Z,957.97
2023-03-02T19:35:09.590Z,957.99
2023-03-02T19:36:09.601Z,958.00
2023-03-02T19:37:09.663Z,958.00
2023-03-02T19:38:09.624Z,958.08
2023-03-02T19:39:09.570Z,958.09
2023-03-02T19:40:09.570Z,958.08
2023-03-02T19:41:09.532Z,958.10
2023-03-02T19:42:09.527Z,958.08
2023-03-02T19:43:09.513Z,958.08
2023-03-02T19:44:09.513Z,958.11
2023-03-02T19:45:09.480Z,958.10
2023-03-02T19:46:09.497Z,958.08
2023-03-02T19:47:09.474Z,958.11
2023-03-02T19:48:09.446Z,958.15
2023-03-02T19:49:09.568Z,958.12
2023-03-02T19:50:09.420Z,958.12
2023-03-02T19:51:09.447Z,958.09
2023-03-02T19:52:09.432Z,958.15
2023-03-02T19:53:09.382Z,958.13
2023-03-02T19:54:09.384Z,958.11
2023-03-02T19:55:10.721Z,958.10
2023-03-02T19:56:09.372Z,958.10
2023-03-02T19:57:09.447Z,958.08
2023-03-02T19:58:09.330Z,958.13
2023-03-02T19:59:09.318Z,958.07
2023-03-02T20:00:09.322Z,958.13
2023-03-02T20:01:11.002Z,958.15
2023-03-02T20:02:09.737Z,958.15
2023-03-02T20:03:09.292Z,958.14
2023-03-02T20:04:09.278Z,958.20
2023-03-02T20:05:09.256Z,958.16
2023-03-02T20:06:09.272Z,958.13
2023-03-02T20:07:09.277Z,958.15
2023-03-02T20:08:09.227Z,958.16
2023-03-02T20:09:09.206Z,958.19
2023-03-02T20:10:09.267Z,958.15
2023-03-02T20:11:09.222Z,958.18
2023-03-02T20:12:09.212Z,958.16
2023-03-02T20:13:09.187Z,958.19
2023-03-02T20:14:09.170Z,958.10
2023-03-02T20:15:09.186Z,958.18
2023-03-02T20:16:09.228Z,958.16
2023-03-02T20:17:09.206Z,958.15
2023-03-02T20:18:09.137Z,958.11
2023-03-02T20:19:09.148Z,958.12
2023-03-02T20:20:09.100Z,958.08
2023-03-02T20:21:09.098Z,958.13
2023-03-02T20:22:09.086Z,958.17
2023-03-02T20:23:09.893Z,958.19
2023-03-02T20:24:09.309Z,958.15
2023-03-02T20:25:09.081Z,958.15
2023-03-02T20:26:09.048Z,958.18
2023-03-02T20:27:09.033Z,958.09
2023-03-02T20:28:09.003Z,958.09
2023-03-02T20:29:09.039Z,958.14
2023-03-02T20:30:09.091Z,958.14
2023-03-02T20:31:09.087Z,958.08
2023-03-02T20:32:09.145Z,958.03
2023-03-02T20:33:08.999Z,958.08
2023-03-02T20:34:08.931Z,958.05
2023-03-02T20:35:08.928Z,958.08
2023-03-02T20:36:08.954Z,958.07
2023-03-02T20:37:08.930Z,958.06
2023-03-02T20:38:08.889Z,958.09
2023-03-02T20:39:08.904Z,958.10
2023-03-02T20:40:08.928Z,958.11
2023-03-02T20:41:08.870Z,958.15
2023-03-02T20:42:08.870Z,958.15
2023-03-02T20:43:08.865Z,958.15
2023-03-02T20:44:08.867Z,958.20
2023-03-02T20:45:09.024Z,958.15
2023-03-02T20:46:08.858Z,958.17
2023-03-02T20:47:08.826Z,958.17
2023-03-02T20:48:08.806Z,958.13
2023-03-02T20:49:08.769Z,958.14
2023-03-02T20:50:08.754Z,958.17
2023-03-02T20:51:08.774Z,958.14
2023-03-02T20:52:08.770Z,958.11
2023-03-02T20:53:08.742Z,958.17
2023-03-02T20:54:08.731Z,958.21
2023-03-02T20:55:08.714Z,958.18
2023-03-02T20:56:08.820Z,958.17
2023-03-02T20:57:08.717Z,958.17
2023-03-02T20:58:08.704Z,958.13
2023-03-02T20:59:08.879Z,958.15
2023-03-02T21:00:08.656Z,958.15
2023-03-02T21:01:08.747Z,958.13
2023-03-02T21:02:08.646Z,958.20
2023-03-02T21:03:08.635Z,958.18
2023-03-02T21:04:08.721Z,958.27
2023-03-02T21:05:08.594Z,958.23
2023-03-02T21:06:08.582Z,958.20
2023-03-02T21:07:08.568Z,958.21
2023-03-02T21:08:08.571Z,958.28
2023-03-02T21:09:08.770Z,958.25
2023-03-02T21:10:08.563Z,958.25
2023-03-02T21:11:08.516Z,958.26
2023-03-02T21:12:08.531Z,958.29
2023-03-02T21:13:08.516Z,958.28
2023-03-02T21:14:08.687Z,958.32
2023-03-02T21:15:08.486Z,958.35
2023-03-02T21:16:08.576Z,958.29
2023-03-02T21:17:08.465Z,958.28
2023-03-02T21:18:08.486Z,958.29
2023-03-02T21:19:08.581Z,958.35
2023-03-02T21:20:08.431Z,958.35
2023-03-02T21:21:08.415Z,958.27
2023-03-02T21:22:08.475Z,958.37
2023-03-02T21:23:08.421Z,958.30
2023-03-02T21:24:08.847Z,958.30
2023-03-02T21:25:08.366Z,958.30
2023-03-02T21:26:08.363Z,958.29
2023-03-02T21:27:08.362Z,958.34
2023-03-02T21:28:08.359Z,958.33
2023-03-02T21:29:08.546Z,958.31
2023-03-02T21:30:08.324Z,958.28
2023-03-02T21:31:08.340Z,958.27
2023-03-02T21:32:08.328Z,958.28
2023-03-02T21:33:08.300Z,958.31
2023-03-02T21:34:08.269Z,958.24
2023-03-02T21:35:08.260Z,958.25
2023-03-02T21:36:08.248Z,958.25
2023-03-02T21:37:08.251Z,958.24
2023-03-02T21:38:08.249Z,958.25
2023-03-02T21:39:08.235Z,958.22
2023-03-02T21:40:08.219Z,958.24
2023-03-02T21:41:08.189Z,958.28
2023-03-02T21:42:08.191Z,958.30
2023-03-02T21:43:08.186Z,958.26
2023-03-02T21:44:08.173Z,958.28
2023-03-02T21:45:08.151Z,958.23
2023-03-02T21:46:08.184Z,958.26
2023-03-02T21:47:08.140Z,958.28
2023-03-02T21:48:08.134Z,958.25
2023-03-02T21:49:08.109Z,958.28
2023-03-02T21:50:08.236Z,958.27
2023-03-02T21:51:08.088Z,958.24
2023-03-02T21:52:08.086Z,958.30
2023-03-02T21:53:08.071Z,958.26
2023-03-02T21:54:08.047Z,958.27
2023-03-02T21:55:08.041Z,958.27
2023-03-02T21:56:08.031Z,958.28
2023-03-02T21:57:08.055Z,958.27
2023-03-02T21:58:08.014Z,958.26
2023-03-02T21:59:08.016Z,958.31
2023-03-02T22:00:08.000Z,958.35
2023-03-02T22:01:07.979Z,958.34
2023-03-02T22:02:08.100Z,958.39
2023-03-02T22:03:07.983Z,958.41
2023-03-02T22:04:07.953Z,958.44
2023-03-02T22:05:07.988Z,958.39
2023-03-02T22:06:07.943Z,958.38
2023-03-02T22:07:07.912Z,958.35
2023-03-02T22:08:07.953Z,958.34
2023-03-02T22:09:07.887Z,958.38
2023-03-02T22:10:07.898Z,958.33
2023-03-02T22:11:07.865Z,958.31
2023-03-02T22:12:07.885Z,958.36
2023-03-02T22:13:07.865Z,958.32
2023-03-02T22:14:07.832Z,958.30
2023-03-02T22:15:07.884Z,958.31
2023-03-02T22:16:07.871Z,958.36
2023-03-02T22:17:07.815Z,958.38
2023-03-02T22:18:07.803Z,958.39
2023-03-02T22:19:07.807Z,958.36
2023-03-02T22:20:07.788Z,958.37
2023-03-02T22:21:07.758Z,958.35
2023-03-02T22:22:07.742Z,958.36
2023-03-02T22:23:07.737Z,958.36
2023-03-02T22:24:07.734Z,958.40
2023-03-02T22:25:07.743Z,958.36
2023-03-02T22:26:07.712Z,958.38
2023-03-02T22:27:07.732Z,958.35
2023-03-02T22:28:07.775Z,958.34
2023-03-02T22:29:07.691Z,958.39
2023-03-02T22:30:07.670Z,958.36
2023-03-02T22:31:07.660Z,958.37
2023-03-02T22:32:07.722Z,958.35
2023-03-02T22:33:07.674Z,958.36
2023-03-02T22:34:07.648Z,958.34
2023-03-02T22:35:07.614Z,958.34
2023-03-02T22:36:07.754Z,958.35
2023-03-02T22:37:07.587Z,958.36
2023-03-02T22:38:07.575Z,958.40
2023-03-02T22:39:07.691Z,958.35
2023-03-02T22:40:07.548Z,958.35
2023-03-02T22:41:07.588Z,958.35
2023-03-02T22:42:07.533Z,958.37
2023-03-02T22:43:07.530Z,958.39
2023-03-02T22:44:07.513Z,958.35
2023-03-02T22:45:07.499Z,958.35
2023-03-02T22:46:07.509Z,958.40
2023-03-02T22:47:07.518Z,958.44
2023-03-02T22:48:07.473Z,958.47
2023-03-02T22:49:07.479Z,958.46
2023-03-02T22:50:07.474Z,958.46
2023-03-02T22:51:07.470Z,958.45
2023-03-02T22:52:07.419Z,958.50
2023-03-02T22:53:07.446Z,958.43
2023-03-02T22:54:07.433Z,958.42
2023-03-02T22:55:07.391Z,958.39
2023-03-02T22:56:07.372Z,958.46
2023-03-02T22:57:07.371Z,958.37
2023-03-02T22:58:07.361Z,958.39
2023-03-02T22:59:07.374Z,958.43
2023-03-02T23:00:07.360Z,958.42
2023-03-02T23:01:07.386Z,958.38
2023-03-02T23:02:07.310Z,958.36
2023-03-02T23:03:07.372Z,958.36
2023-03-02T23:04:07.389Z,958.32
2023-03-02T23:05:07.275Z,958.41
2023-03-02T23:06:07.333Z,958.34